createdAt,value
2018-06-06T00:00:51.299Z,88.98
2018-06-06T00:01:51.306Z,89.07
2018-06-06T00:02:51.273Z,89.07
2018-06-06T00:03:51.318Z,89.07
2018-06-06T00:04:51.317Z,89.03
2018-06-06T00:05:51.281Z,89.22
2018-06-06T00:06:51.275Z,89.03
2018-06-06T00:07:51.316Z,89.51
2018-06-06T00:08:51.274Z,89.41
2018-06-06T00:09:51.358Z,89.03
2018-06-06T00:10:51.295Z,89.32
2018-06-06T00:11:51.350Z,88.93
2018-06-06T00:12:51.333Z,89.51
2018-06-06T00:13:51.299Z,89.89
2018-06-06T00:14:51.295Z,89.89
2018-06-06T00:15:50.717Z,89.26
2018-06-06T00:16:53.113Z,89.41
2018-06-06T00:17:51.223Z,89.22
2018-06-06T00:18:51.255Z,89.41
2018-06-06T00:19:51.228Z,89.32
2018-06-06T00:20:51.273Z,89.89
2018-06-06T00:21:51.310Z,89.32
2018-06-06T00:22:51.284Z,89.03
2018-06-06T00:23:51.281Z,89.61
2018-06-06T00:24:51.298Z,89.12
2018-06-06T00:25:51.291Z,88.74
2018-06-06T00:26:51.382Z,88.93
2018-06-06T00:27:51.290Z,89.41
2018-06-06T00:28:51.280Z,88.84
2018-06-06T00:29:51.311Z,89.12
2018-06-06T00:30:51.350Z,88.55
2018-06-06T00:31:51.292Z,89.51
2018-06-06T00:32:51.277Z,89.03
2018-06-06T00:33:51.358Z,89.79
2018-06-06T00:34:51.120Z,89.79
2018-06-06T00:35:51.288Z,89.79
2018-06-06T00:36:51.253Z,90.08
2018-06-06T00:37:51.331Z,90.18
2018-06-06T00:38:51.360Z,89.41
2018-06-06T00:39:51.501Z,89.03
2018-06-06T00:40:50.790Z,89.41
2018-06-06T00:41:51.263Z,89.79
2018-06-06T00:42:51.289Z,89.89
2018-06-06T00:43:51.295Z,89.41
2018-06-06T00:44:51.284Z,89.70
2018-06-06T00:45:51.237Z,89.12
2018-06-06T00:46:51.332Z,89.70
2018-06-06T00:47:51.248Z,89.75
2018-06-06T00:48:51.320Z,89.03
2018-06-06T00:49:51.312Z,89.41
2018-06-06T00:50:51.317Z,89.51
2018-06-06T00:51:51.366Z,89.22
2018-06-06T00:52:51.347Z,89.41
2018-06-06T00:53:50.712Z,89.99
2018-06-06T00:54:51.359Z,89.85
2018-06-06T00:55:51.347Z,89.94
2018-06-06T00:56:51.348Z,89.99
2018-06-06T00:57:51.329Z,89.41
2018-06-06T00:58:53.115Z,89.61
2018-06-06T00:59:51.309Z,89.51
2018-06-06T01:00:51.370Z,89.85
2018-06-06T01:01:51.416Z,90.14
2018-06-06T01:02:51.375Z,89.61
2018-06-06T01:03:51.363Z,90.18
2018-06-06T01:04:51.373Z,89.51
2018-06-06T01:05:51.362Z,89.94
2018-06-06T01:06:51.354Z,90.71
2018-06-06T01:07:51.384Z,90.14
2018-06-06T01:08:51.317Z,90.04
2018-06-06T01:09:51.272Z,89.56
2018-06-06T01:10:51.344Z,89.85
2018-06-06T01:11:51.281Z,89.75
2018-06-06T01:12:51.310Z,90.04
2018-06-06T01:13:51.315Z,89.85
2018-06-06T01:14:51.353Z,89.65
2018-06-06T01:15:49.606Z,90.42
2018-06-06T01:16:51.284Z,90.42
2018-06-06T01:17:51.310Z,90.42
2018-06-06T01:18:51.273Z,90.23
2018-06-06T01:19:51.350Z,90.33
2018-06-06T01:20:51.302Z,90.04
2018-06-06T01:21:51.288Z,90.14
2018-06-06T01:22:51.328Z,90.14
2018-06-06T01:23:51.327Z,90.04
2018-06-06T01:24:51.298Z,89.94
2018-06-06T01:25:51.514Z,90.52
2018-06-06T01:26:51.367Z,90.42
2018-06-06T01:27:51.365Z,90.52
2018-06-06T01:28:51.294Z,90.23
2018-06-06T01:29:51.317Z,89.85
2018-06-06T01:30:51.349Z,89.75
2018-06-06T01:31:51.382Z,90.42
2018-06-06T01:32:51.258Z,90.23
2018-06-06T01:33:51.378Z,89.65
2018-06-06T01:34:51.307Z,90.04
2018-06-06T01:35:51.305Z,90.33
2018-06-06T01:36:51.105Z,90.52
2018-06-06T01:37:53.050Z,90.81
2018-06-06T01:38:52.028Z,90.81
2018-06-06T01:39:51.047Z,90.95
2018-06-06T01:40:51.115Z,90.71
2018-06-06T01:41:51.121Z,91.00
2018-06-06T01:42:51.053Z,90.71
2018-06-06T01:43:51.088Z,91.19
2018-06-06T01:44:51.063Z,90.61
2018-06-06T01:45:51.059Z,90.71
2018-06-06T01:46:51.059Z,90.81
2018-06-06T01:47:51.071Z,90.90
2018-06-06T01:48:51.116Z,90.81
2018-06-06T01:49:51.136Z,91.28
2018-06-06T01:50:51.137Z,90.42
2018-06-06T01:51:51.389Z,90.61
2018-06-06T01:52:51.103Z,90.71
2018-06-06T01:53:51.122Z,91.38
2018-06-06T01:54:51.089Z,91.28
2018-06-06T01:55:51.127Z,90.81
2018-06-06T01:56:51.135Z,91.28
2018-06-06T01:57:51.196Z,90.71
2018-06-06T01:58:51.123Z,90.67
2018-06-06T01:59:49.606Z,90.67
2018-06-06T02:00:51.079Z,90.95
2018-06-06T02:01:51.074Z,91.05
2018-06-06T02:02:51.045Z,90.28
2018-06-06T02:03:51.013Z,91.14
2018-06-06T02:04:51.063Z,91.24
2018-06-06T02:05:51.123Z,91.14
2018-06-06T02:06:51.048Z,91.05
2018-06-06T02:07:51.194Z,90.95
2018-06-06T02:08:51.121Z,91.19
2018-06-06T02:09:51.139Z,90.47
2018-06-06T02:10:49.607Z,90.47
2018-06-06T02:11:51.068Z,91.24
2018-06-06T02:12:51.116Z,91.00
2018-06-06T02:13:51.080Z,90.86
2018-06-06T02:14:49.619Z,91.05
2018-06-06T02:15:51.137Z,90.57
2018-06-06T02:16:51.040Z,91.24
2018-06-06T02:17:51.080Z,90.95
2018-06-06T02:18:51.000Z,91.53
2018-06-06T02:19:51.031Z,91.43
2018-06-06T02:20:51.033Z,90.95
2018-06-06T02:21:51.136Z,91.24
2018-06-06T02:22:51.048Z,91.14
2018-06-06T02:23:51.032Z,91.24
2018-06-06T02:24:50.917Z,91.14
2018-06-06T02:25:51.530Z,90.67
2018-06-06T02:26:50.849Z,91.34
2018-06-06T02:27:50.908Z,91.63
2018-06-06T02:28:50.905Z,91.24
2018-06-06T02:29:51.045Z,90.95
2018-06-06T02:30:50.982Z,91.53
2018-06-06T02:31:51.030Z,92.20
2018-06-06T02:32:51.014Z,91.53
2018-06-06T02:33:51.015Z,91.63
2018-06-06T02:34:51.033Z,91.05
2018-06-06T02:35:51.050Z,91.14
2018-06-06T02:36:51.046Z,91.34
2018-06-06T02:37:51.124Z,90.57
2018-06-06T02:38:51.088Z,91.63
2018-06-06T02:39:51.031Z,90.95
2018-06-06T02:40:51.119Z,91.43
2018-06-06T02:41:51.120Z,91.43
2018-06-06T02:42:51.124Z,91.63
2018-06-06T02:43:51.194Z,91.34
2018-06-06T02:44:51.143Z,91.82
2018-06-06T02:45:51.079Z,92.01
2018-06-06T02:46:51.091Z,91.24
2018-06-06T02:47:50.999Z,91.91
2018-06-06T02:48:51.206Z,92.39
2018-06-06T02:49:51.035Z,92.77
2018-06-06T02:50:51.046Z,92.39
2018-06-06T02:51:51.124Z,92.10
2018-06-06T02:52:51.060Z,92.10
2018-06-06T02:53:50.936Z,92.10
2018-06-06T02:54:50.929Z,91.82
2018-06-06T02:55:50.876Z,91.82
2018-06-06T02:56:51.029Z,92.01
2018-06-06T02:57:50.929Z,92.01
2018-06-06T02:58:50.948Z,91.91
2018-06-06T02:59:50.909Z,92.10
2018-06-06T03:00:50.875Z,91.43
2018-06-06T03:01:50.948Z,91.53
2018-06-06T03:02:51.042Z,92.20
2018-06-06T03:03:50.954Z,92.68
2018-06-06T03:04:50.643Z,92.68
2018-06-06T03:05:50.953Z,92.49
2018-06-06T03:06:50.982Z,92.01
2018-06-06T03:07:51.000Z,92.01
2018-06-06T03:08:50.995Z,92.01
2018-06-06T03:09:51.051Z,92.39
2018-06-06T03:10:51.066Z,91.82
2018-06-06T03:11:50.983Z,92.39
2018-06-06T03:12:50.984Z,92.30
2018-06-06T03:13:50.985Z,92.01
2018-06-06T03:14:51.080Z,92.49
2018-06-06T03:15:51.132Z,92.20
2018-06-06T03:16:51.197Z,92.63
2018-06-06T03:17:51.061Z,92.49
2018-06-06T03:18:51.095Z,92.63
2018-06-06T03:19:50.898Z,92.87
2018-06-06T03:20:50.910Z,92.82
2018-06-06T03:21:50.896Z,92.35
2018-06-06T03:22:50.953Z,92.82
2018-06-06T03:23:50.916Z,92.82
2018-06-06T03:24:50.925Z,92.68
2018-06-06T03:25:50.953Z,92.25
2018-06-06T03:26:50.964Z,92.54
2018-06-06T03:27:50.891Z,92.35
2018-06-06T03:28:50.906Z,92.68
2018-06-06T03:29:50.955Z,92.44
2018-06-06T03:30:50.962Z,92.63
2018-06-06T03:31:50.963Z,92.87
2018-06-06T03:32:51.012Z,92.63
2018-06-06T03:33:51.034Z,92.68
2018-06-06T03:34:50.890Z,92.92
2018-06-06T03:35:51.551Z,92.35
2018-06-06T03:36:51.035Z,92.68
2018-06-06T03:37:51.052Z,93.06
2018-06-06T03:38:51.552Z,92.92
2018-06-06T03:40:51.046Z,93.21
2018-06-06T03:41:51.132Z,92.87
2018-06-06T03:42:51.064Z,92.68
2018-06-06T03:43:51.102Z,92.20
2018-06-06T03:44:50.964Z,92.63
2018-06-06T03:45:50.870Z,93.30
2018-06-06T03:46:50.601Z,93.35
2018-06-06T03:47:50.921Z,93.35
2018-06-06T03:48:50.986Z,93.21
2018-06-06T03:49:50.878Z,93.02
2018-06-06T03:50:50.932Z,93.30
2018-06-06T03:51:50.933Z,93.02
2018-06-06T03:52:50.951Z,93.49
2018-06-06T03:53:50.971Z,93.69
2018-06-06T03:54:51.559Z,93.98
2018-06-06T03:55:50.957Z,92.92
2018-06-06T03:56:50.985Z,93.11
2018-06-06T03:57:50.973Z,93.30
2018-06-06T03:58:51.010Z,93.30
2018-06-06T03:59:50.999Z,93.30
2018-06-06T04:00:51.056Z,93.88
2018-06-06T04:01:51.050Z,93.88
2018-06-06T04:02:51.043Z,93.21
2018-06-06T04:03:50.982Z,93.11
2018-06-06T04:04:51.078Z,93.11
2018-06-06T04:05:51.033Z,93.30
2018-06-06T04:06:51.036Z,93.21
2018-06-06T04:07:51.051Z,93.59
2018-06-06T04:08:51.002Z,93.35
2018-06-06T04:09:51.051Z,93.16
2018-06-06T04:10:50.847Z,93.40
2018-06-06T04:11:50.904Z,92.92
2018-06-06T04:12:50.843Z,92.97
2018-06-06T04:13:50.983Z,92.77
2018-06-06T04:14:50.980Z,92.73
2018-06-06T04:15:51.074Z,92.92
2018-06-06T04:16:51.050Z,93.16
2018-06-06T04:17:51.026Z,93.16
2018-06-06T04:18:51.003Z,93.16
2018-06-06T04:19:50.985Z,92.77
2018-06-06T04:20:51.037Z,92.97
2018-06-06T04:21:50.832Z,92.97
2018-06-06T04:22:50.842Z,92.68
2018-06-06T04:23:50.927Z,92.77
2018-06-06T04:24:50.911Z,93.06
2018-06-06T04:25:50.873Z,92.87
2018-06-06T04:26:50.593Z,92.68
2018-06-06T04:27:50.866Z,92.68
2018-06-06T04:28:51.407Z,93.35
2018-06-06T04:29:50.977Z,93.63
2018-06-06T04:30:50.937Z,93.44
2018-06-06T04:31:50.991Z,93.16
2018-06-06T04:32:51.007Z,93.16
2018-06-06T04:33:51.017Z,93.26
2018-06-06T04:34:50.997Z,93.83
2018-06-06T04:35:51.004Z,94.55
2018-06-06T04:36:51.030Z,94.79
2018-06-06T04:37:51.029Z,93.93
2018-06-06T04:38:50.942Z,93.73
2018-06-06T04:39:51.083Z,93.35
2018-06-06T04:40:51.063Z,93.63
2018-06-06T04:41:51.041Z,93.26
2018-06-06T04:42:51.034Z,93.63
2018-06-06T04:43:51.075Z,93.73
2018-06-06T04:44:53.076Z,92.77
2018-06-06T04:45:51.039Z,93.16
2018-06-06T04:46:51.059Z,93.16
2018-06-06T04:47:51.059Z,92.97
2018-06-06T04:48:51.090Z,93.16
2018-06-06T04:49:51.387Z,93.06
2018-06-06T04:50:51.086Z,93.63
2018-06-06T04:51:51.051Z,93.35
2018-06-06T04:52:52.880Z,92.91
2018-06-06T04:53:51.014Z,92.34
2018-06-06T04:54:51.058Z,93.01
2018-06-06T04:55:51.340Z,93.11
2018-06-06T04:56:51.423Z,93.26
2018-06-06T04:57:50.945Z,93.40
2018-06-06T04:58:50.887Z,93.63
2018-06-06T04:59:50.956Z,93.40
2018-06-06T05:00:50.894Z,92.91
2018-06-06T05:01:50.957Z,92.91
2018-06-06T05:02:50.978Z,92.91
2018-06-06T05:03:51.012Z,92.91
2018-06-06T05:04:52.720Z,92.54
2018-06-06T05:05:51.037Z,92.63
2018-06-06T05:06:50.974Z,93.21
2018-06-06T05:07:51.007Z,92.82
2018-06-06T05:08:51.009Z,93.11
2018-06-06T05:09:51.029Z,93.01
2018-06-06T05:10:51.414Z,92.91
2018-06-06T05:11:50.992Z,92.82
2018-06-06T05:12:50.681Z,93.40
2018-06-06T05:13:51.125Z,93.21
2018-06-06T05:14:52.835Z,93.21
2018-06-06T05:15:51.002Z,93.01
2018-06-06T05:16:51.037Z,93.30
2018-06-06T05:17:51.054Z,92.63
2018-06-06T05:18:50.973Z,92.48
2018-06-06T05:19:51.080Z,92.68
2018-06-06T05:20:51.334Z,92.91
2018-06-06T05:21:50.977Z,92.72
2018-06-06T05:22:50.950Z,92.77
2018-06-06T05:23:50.960Z,92.48
2018-06-06T05:25:51.157Z,92.19
2018-06-06T05:26:51.291Z,92.29
2018-06-06T05:27:50.999Z,92.10
2018-06-06T05:28:50.992Z,91.81
2018-06-06T05:29:51.000Z,91.33
2018-06-06T05:30:51.433Z,91.62
2018-06-06T05:31:51.423Z,91.52
2018-06-06T05:32:50.861Z,91.24
2018-06-06T05:33:53.159Z,90.66
2018-06-06T05:34:50.863Z,91.14
2018-06-06T05:35:50.907Z,91.38
2018-06-06T05:36:50.990Z,90.32
2018-06-06T05:37:50.600Z,90.52
2018-06-06T05:38:50.924Z,90.32
2018-06-06T05:39:50.968Z,90.52
2018-06-06T05:40:50.947Z,89.84
2018-06-06T05:41:51.006Z,89.75
2018-06-06T05:42:51.000Z,89.84
2018-06-06T05:43:50.982Z,89.36
2018-06-06T05:44:51.003Z,90.03
2018-06-06T05:45:51.035Z,89.65
2018-06-06T05:46:51.040Z,89.36
2018-06-06T05:47:51.510Z,89.94
2018-06-06T05:48:50.967Z,89.79
2018-06-06T05:49:50.844Z,89.60
2018-06-06T05:50:51.057Z,89.69
2018-06-06T05:51:51.157Z,90.17
2018-06-06T05:52:50.876Z,89.69
2018-06-06T05:53:51.192Z,89.31
2018-06-06T05:54:50.965Z,88.83
2018-06-06T05:56:50.933Z,88.25
2018-06-06T05:57:51.097Z,87.96
2018-06-06T05:58:53.099Z,87.49
2018-06-06T06:00:04.206Z,87.43
2018-06-06T06:00:51.132Z,86.85
2018-06-06T06:01:51.035Z,86.28
2018-06-06T06:02:51.046Z,86.09
2018-06-06T06:03:51.567Z,86.28
2018-06-06T06:04:50.993Z,86.57
2018-06-06T06:05:51.446Z,86.18
2018-06-06T06:06:51.107Z,86.18
2018-06-06T06:07:51.472Z,85.89
2018-06-06T06:08:51.426Z,85.80
2018-06-06T06:09:51.568Z,85.41
2018-06-06T06:10:51.445Z,85.41
2018-06-06T06:11:51.437Z,85.94
2018-06-06T06:12:51.465Z,85.22
2018-06-06T06:13:50.665Z,85.36
2018-06-06T06:14:50.709Z,85.75
2018-06-06T06:15:51.083Z,85.17
2018-06-06T06:16:51.491Z,85.75
2018-06-06T06:17:51.009Z,85.27
2018-06-06T06:18:52.949Z,85.65
2018-06-06T06:19:51.004Z,84.78
2018-06-06T06:20:51.461Z,84.30
2018-06-06T06:21:50.970Z,84.21
2018-06-06T06:22:52.768Z,84.11
2018-06-06T06:23:51.444Z,84.01
2018-06-06T06:24:50.886Z,83.67
2018-06-06T06:25:51.147Z,83.19
2018-06-06T06:26:51.013Z,83.29
2018-06-06T06:27:51.302Z,83.39
2018-06-06T06:28:50.888Z,83.58
2018-06-06T06:29:51.661Z,83.29
2018-06-06T06:30:50.757Z,82.32
2018-06-06T06:31:51.580Z,82.32
2018-06-06T06:32:51.035Z,82.42
2018-06-06T06:33:51.733Z,82.52
2018-06-06T06:34:50.988Z,82.61
2018-06-06T06:35:51.003Z,82.42
2018-06-06T06:36:50.748Z,81.94
2018-06-06T06:37:51.076Z,82.08
2018-06-06T06:38:50.884Z,81.46
2018-06-06T06:39:50.963Z,81.40
2018-06-06T06:40:51.575Z,81.79
2018-06-06T06:41:51.058Z,81.40
2018-06-06T06:42:51.172Z,81.70
2018-06-06T06:43:50.841Z,81.12
2018-06-06T06:44:51.110Z,81.12
2018-06-06T06:45:51.460Z,80.63
2018-06-06T06:46:51.069Z,80.44
2018-06-06T06:47:51.076Z,80.92
2018-06-06T06:48:51.599Z,80.73
2018-06-06T06:49:50.925Z,81.12
2018-06-06T06:50:51.163Z,81.30
2018-06-06T06:51:51.098Z,81.02
2018-06-06T06:52:51.162Z,81.02
2018-06-06T06:53:51.121Z,80.54
2018-06-06T06:54:50.950Z,80.83
2018-06-06T06:55:50.969Z,80.73
2018-06-06T06:56:50.866Z,80.35
2018-06-06T06:57:51.002Z,80.73
2018-06-06T06:58:50.904Z,80.25
2018-06-06T06:59:50.883Z,80.63
2018-06-06T07:00:50.889Z,80.58
2018-06-06T07:01:50.880Z,80.48
2018-06-06T07:02:51.165Z,80.29
2018-06-06T07:03:51.498Z,80.48
2018-06-06T07:04:51.462Z,80.19
2018-06-06T07:05:51.016Z,80.10
2018-06-06T07:06:51.118Z,79.13
2018-06-06T07:07:51.063Z,80.00
2018-06-06T07:08:51.027Z,79.81
2018-06-06T07:09:51.436Z,79.81
2018-06-06T07:10:51.024Z,79.71
2018-06-06T07:11:51.008Z,79.52
2018-06-06T07:12:50.908Z,79.71
2018-06-06T07:13:50.569Z,79.71
2018-06-06T07:14:50.909Z,79.75
2018-06-06T07:15:50.951Z,79.27
2018-06-06T07:16:52.758Z,79.17
2018-06-06T07:17:51.570Z,79.52
2018-06-06T07:18:51.497Z,79.17
2018-06-06T07:19:51.424Z,79.17
2018-06-06T07:20:53.170Z,79.75
2018-06-06T07:21:51.139Z,79.46
2018-06-06T07:22:52.540Z,78.69
2018-06-06T07:23:51.615Z,78.69
2018-06-06T07:24:51.408Z,78.31
2018-06-06T07:25:50.997Z,78.69
2018-06-06T07:26:50.924Z,77.25
2018-06-06T07:27:50.729Z,77.73
2018-06-06T07:28:51.170Z,77.44
2018-06-06T07:29:50.711Z,77.34
2018-06-06T07:30:51.474Z,77.25
2018-06-06T07:31:51.606Z,77.44
2018-06-06T07:32:51.097Z,77.76
2018-06-06T07:33:51.390Z,76.71
2018-06-06T07:34:51.607Z,76.32
2018-06-06T07:35:51.677Z,77.00
2018-06-06T07:36:51.011Z,76.61
2018-06-06T07:37:50.683Z,77.09
2018-06-06T07:38:51.052Z,77.00
2018-06-06T07:39:51.062Z,77.28
2018-06-06T07:40:51.672Z,76.90
2018-06-06T07:41:51.515Z,77.28
2018-06-06T07:42:51.129Z,77.38
2018-06-06T07:43:51.177Z,76.75
2018-06-06T07:44:51.143Z,76.32
2018-06-06T07:45:51.483Z,75.93
2018-06-06T07:46:51.219Z,76.13
2018-06-06T07:47:51.415Z,76.03
2018-06-06T07:48:50.678Z,75.49
2018-06-06T07:49:51.457Z,75.97
2018-06-06T07:50:51.070Z,75.78
2018-06-06T07:51:53.210Z,75.30
2018-06-06T07:52:51.579Z,74.72
2018-06-06T07:53:51.040Z,75.30
2018-06-06T07:54:51.105Z,75.20
2018-06-06T07:55:51.579Z,75.40
2018-06-06T07:57:51.015Z,75.20
2018-06-06T07:58:51.007Z,74.85
2018-06-06T07:59:51.480Z,73.57
2018-06-06T08:00:51.399Z,74.05
2018-06-06T08:01:51.520Z,74.08
2018-06-06T08:02:50.985Z,73.99
2018-06-06T08:03:51.577Z,73.69
2018-06-06T08:04:53.499Z,73.60
2018-06-06T08:05:51.500Z,73.89
2018-06-06T08:06:51.272Z,73.41
2018-06-06T08:07:51.746Z,73.41
2018-06-06T08:08:51.498Z,73.50
2018-06-06T08:09:52.938Z,73.60
2018-06-06T08:10:51.420Z,73.50
2018-06-06T08:11:51.169Z,73.99
2018-06-06T08:12:51.775Z,73.60
2018-06-06T08:13:51.181Z,73.60
2018-06-06T08:14:52.965Z,73.06
2018-06-06T08:15:53.003Z,72.83
2018-06-06T08:16:51.159Z,72.54
2018-06-06T08:17:51.013Z,72.63
2018-06-06T08:18:51.474Z,72.67
2018-06-06T08:19:51.197Z,72.58
2018-06-06T08:20:51.222Z,72.09
2018-06-06T08:21:51.475Z,72.09
2018-06-06T08:22:51.398Z,71.80
2018-06-06T08:23:51.107Z,72.00
2018-06-06T08:24:51.099Z,71.80
2018-06-06T08:25:51.189Z,71.80
2018-06-06T08:26:51.682Z,71.80
2018-06-06T08:27:51.253Z,71.80
2018-06-06T08:28:51.146Z,71.70
2018-06-06T08:29:51.646Z,70.94
2018-06-06T08:30:51.164Z,70.97
2018-06-06T08:31:51.155Z,70.78
2018-06-06T08:32:51.364Z,70.29
2018-06-06T08:33:51.699Z,70.39
2018-06-06T08:34:51.651Z,70.00
2018-06-06T08:35:51.445Z,69.32
2018-06-06T08:36:51.509Z,69.81
2018-06-06T08:37:51.285Z,69.90
2018-06-06T08:38:51.532Z,70.39
2018-06-06T08:39:51.154Z,70.00
2018-06-06T08:40:51.508Z,70.10
2018-06-06T08:41:51.010Z,69.81
2018-06-06T08:42:51.624Z,70.10
2018-06-06T08:43:51.204Z,69.74
2018-06-06T08:44:51.748Z,69.84
2018-06-06T08:45:51.460Z,69.36
2018-06-06T08:46:51.454Z,69.07
2018-06-06T08:47:51.998Z,69.56
2018-06-06T08:48:51.700Z,69.07
2018-06-06T08:49:51.508Z,69.56
2018-06-06T08:50:51.766Z,68.68
2018-06-06T08:51:53.563Z,69.07
2018-06-06T08:52:52.000Z,69.56
2018-06-06T08:53:51.428Z,69.94
2018-06-06T08:54:51.461Z,70.04
2018-06-06T08:55:51.722Z,69.36
2018-06-06T08:56:52.273Z,69.56
2018-06-06T08:57:51.712Z,69.07
2018-06-06T08:58:51.206Z,68.59
2018-06-06T08:59:51.701Z,68.88
2018-06-06T09:00:51.447Z,69.26
2018-06-06T09:01:51.726Z,69.30
2018-06-06T09:02:53.870Z,68.04
2018-06-06T09:03:51.453Z,68.24
2018-06-06T09:04:52.015Z,67.91
2018-06-06T09:05:51.756Z,68.59
2018-06-06T09:06:51.209Z,67.85
2018-06-06T09:07:51.513Z,67.27
2018-06-06T09:08:51.854Z,67.08
2018-06-06T09:09:51.427Z,67.66
2018-06-06T09:10:51.453Z,67.27
2018-06-06T09:11:52.016Z,65.82
2018-06-06T09:12:52.095Z,65.92
2018-06-06T09:13:51.758Z,64.95
2018-06-06T09:14:51.734Z,65.17
2018-06-06T09:15:51.754Z,64.95
2018-06-06T09:16:51.725Z,65.17
2018-06-06T09:17:52.003Z,65.37
2018-06-06T09:18:51.768Z,65.08
2018-06-06T09:19:51.744Z,65.08
2018-06-06T09:20:51.530Z,65.56
2018-06-06T09:21:51.509Z,65.17
2018-06-06T09:22:52.022Z,65.17
2018-06-06T09:23:51.667Z,63.53
2018-06-06T09:24:52.007Z,62.76
2018-06-06T09:25:51.225Z,62.56
2018-06-06T09:26:51.720Z,62.27
2018-06-06T09:27:51.765Z,62.85
2018-06-06T09:28:51.523Z,62.37
2018-06-06T09:29:51.719Z,61.79
2018-06-06T09:30:50.854Z,62.11
2018-06-06T09:31:50.882Z,62.30
2018-06-06T09:32:51.043Z,62.69
2018-06-06T09:33:51.480Z,62.21
2018-06-06T09:34:52.023Z,62.11
2018-06-06T09:35:53.609Z,61.82
2018-06-06T09:36:51.474Z,61.92
2018-06-06T09:37:51.722Z,61.53
2018-06-06T09:38:51.752Z,61.43
2018-06-06T09:39:53.762Z,61.24
2018-06-06T09:40:53.626Z,60.75
2018-06-06T09:41:52.023Z,59.69
2018-06-06T09:42:54.145Z,60.17
2018-06-06T09:43:51.728Z,60.27
2018-06-06T09:44:52.275Z,59.59
2018-06-06T09:45:51.718Z,59.98
2018-06-06T09:46:51.730Z,59.59
2018-06-06T09:47:51.525Z,59.40
2018-06-06T09:48:52.031Z,59.50
2018-06-06T09:49:51.469Z,59.14
2018-06-06T09:50:51.682Z,58.27
2018-06-06T09:51:51.680Z,57.79
2018-06-06T09:52:51.537Z,58.27
2018-06-06T09:53:51.732Z,58.47
2018-06-06T09:54:52.046Z,58.27
2018-06-06T09:55:51.565Z,58.47
2018-06-06T09:56:52.187Z,58.56
2018-06-06T09:57:51.482Z,57.79
2018-06-06T09:58:51.729Z,57.30
2018-06-06T09:59:51.731Z,57.40
2018-06-06T10:00:51.421Z,57.69
2018-06-06T10:01:51.516Z,57.98
2018-06-06T10:02:51.495Z,57.11
2018-06-06T10:03:51.725Z,57.69
2018-06-06T10:04:52.238Z,57.62
2018-06-06T10:05:51.521Z,57.50
2018-06-06T10:06:51.740Z,57.53
2018-06-06T10:07:51.447Z,57.53
2018-06-06T10:08:51.707Z,58.78
2018-06-06T10:09:51.497Z,58.69
2018-06-06T10:10:51.470Z,59.07
2018-06-06T10:11:51.743Z,58.69
2018-06-06T10:12:51.447Z,57.81
2018-06-06T10:13:53.347Z,56.16
2018-06-06T10:14:51.794Z,56.26
2018-06-06T10:15:51.743Z,56.56
2018-06-06T10:16:52.051Z,56.46
2018-06-06T10:17:52.045Z,57.33
2018-06-06T10:18:52.192Z,56.85
2018-06-06T10:19:51.748Z,56.16
2018-06-06T10:20:51.502Z,56.36
2018-06-06T10:21:51.395Z,56.20
2018-06-06T10:22:51.694Z,56.29
2018-06-06T10:23:51.835Z,56.49
2018-06-06T10:24:51.534Z,56.77
2018-06-06T10:25:52.027Z,56.68
2018-06-06T10:26:51.178Z,56.85
2018-06-06T10:27:51.703Z,57.14
2018-06-06T10:28:52.055Z,57.26
2018-06-06T10:29:51.658Z,56.87
2018-06-06T10:30:52.049Z,56.39
2018-06-06T10:31:51.843Z,55.81
2018-06-06T10:32:52.056Z,55.42
2018-06-06T10:33:51.641Z,55.71
2018-06-06T10:34:51.705Z,55.54
2018-06-06T10:35:51.748Z,55.47
2018-06-06T10:36:51.813Z,54.48
2018-06-06T10:37:51.535Z,55.16
2018-06-06T10:38:51.807Z,55.16
2018-06-06T10:39:51.813Z,55.35
2018-06-06T10:41:51.757Z,54.48
2018-06-06T10:42:53.222Z,54.28
2018-06-06T10:43:51.468Z,54.21
2018-06-06T10:44:51.779Z,53.99
2018-06-06T10:45:52.127Z,54.09
2018-06-06T10:46:51.794Z,54.58
2018-06-06T10:47:52.199Z,54.09
2018-06-06T10:48:51.566Z,53.73
2018-06-06T10:49:51.527Z,53.44
2018-06-06T10:50:51.603Z,51.43
2018-06-06T10:51:52.056Z,51.04
2018-06-06T10:52:51.832Z,50.46
2018-06-06T10:53:51.786Z,49.87
2018-06-06T10:54:52.081Z,50.36
2018-06-06T10:55:51.756Z,49.19
2018-06-06T10:56:51.570Z,49.68
2018-06-06T10:57:51.202Z,49.66
2018-06-06T10:58:51.568Z,49.37
2018-06-06T10:59:53.795Z,48.52
2018-06-06T11:00:51.639Z,48.52
2018-06-06T11:01:51.645Z,48.32
2018-06-06T11:02:52.089Z,47.93
2018-06-06T11:03:51.630Z,47.83
2018-06-06T11:04:53.466Z,48.13
2018-06-06T11:05:51.758Z,49.00
2018-06-06T11:06:51.568Z,49.49
2018-06-06T11:07:51.738Z,49.39
2018-06-06T11:08:52.094Z,49.39
2018-06-06T11:09:52.323Z,50.46
2018-06-06T11:10:58.061Z,50.16
2018-06-06T11:11:51.961Z,50.19
2018-06-06T11:12:52.218Z,50.19
2018-06-06T11:13:52.116Z,50.94
2018-06-06T11:14:53.503Z,52.78
2018-06-06T11:15:54.273Z,53.85
2018-06-06T11:16:52.175Z,53.66
2018-06-06T11:17:51.769Z,53.69
2018-06-06T11:18:52.269Z,53.78
2018-06-06T11:19:51.782Z,53.30
2018-06-06T11:20:52.219Z,52.72
2018-06-06T11:21:52.251Z,52.13
2018-06-06T11:22:52.290Z,52.30
2018-06-06T11:23:52.156Z,52.81
2018-06-06T11:24:54.076Z,52.91
2018-06-06T11:25:52.238Z,52.91
2018-06-06T11:26:51.855Z,53.69
2018-06-06T11:27:51.756Z,52.94
2018-06-06T11:28:51.932Z,51.77
2018-06-06T11:29:51.782Z,51.31
2018-06-06T11:30:53.781Z,51.11
2018-06-06T11:31:52.286Z,51.40
2018-06-06T11:32:52.201Z,51.67
2018-06-06T11:33:51.716Z,52.94
2018-06-06T11:34:51.604Z,53.45
2018-06-06T11:35:52.098Z,52.98
2018-06-06T11:36:51.751Z,51.40
2018-06-06T11:37:52.335Z,51.97
2018-06-06T11:38:52.124Z,51.50
2018-06-06T11:39:52.287Z,51.31
2018-06-06T11:40:52.062Z,49.66
2018-06-06T11:41:52.283Z,49.95
2018-06-06T11:42:52.040Z,49.29
2018-06-06T11:43:52.034Z,48.80
2018-06-06T11:44:54.591Z,47.93
2018-06-06T11:45:52.309Z,48.03
2018-06-06T11:46:52.059Z,48.22
2018-06-06T11:47:52.075Z,47.25
2018-06-06T11:48:52.330Z,47.83
2018-06-06T11:49:52.290Z,49.58
2018-06-06T11:50:52.331Z,49.22
2018-06-06T11:51:51.642Z,48.73
2018-06-06T11:52:52.293Z,49.00
2018-06-06T11:53:51.785Z,49.39
2018-06-06T11:54:52.582Z,48.83
2018-06-06T11:55:52.334Z,48.34
2018-06-06T11:56:52.331Z,48.07
2018-06-06T11:57:52.596Z,47.30
2018-06-06T11:58:52.333Z,47.47
2018-06-06T11:59:52.291Z,46.91
2018-06-06T12:00:52.573Z,47.37
2018-06-06T12:01:52.594Z,47.20
2018-06-06T12:02:51.665Z,46.69
2018-06-06T12:03:52.303Z,46.67
2018-06-06T12:04:52.860Z,46.86
2018-06-06T12:05:54.084Z,46.69
2018-06-06T12:06:52.097Z,46.42
2018-06-06T12:07:51.826Z,46.32
2018-06-06T12:08:52.337Z,45.81
2018-06-06T12:09:51.812Z,46.69
2018-06-06T12:10:52.105Z,46.71
2018-06-06T12:11:51.661Z,45.25
2018-06-06T12:12:52.107Z,44.69
2018-06-06T12:13:52.317Z,45.67
2018-06-06T12:14:51.299Z,45.95
2018-06-06T12:15:54.326Z,45.28
2018-06-06T12:16:52.196Z,45.18
2018-06-06T12:17:51.799Z,45.37
2018-06-06T12:18:52.012Z,45.18
2018-06-06T12:19:52.612Z,45.57
2018-06-06T12:20:52.339Z,45.39
2018-06-06T12:21:52.591Z,44.64
2018-06-06T12:22:51.633Z,43.95
2018-06-06T12:23:52.037Z,43.76
2018-06-06T12:24:54.190Z,43.84
2018-06-06T12:25:52.151Z,44.30
2018-06-06T12:26:52.645Z,44.01
2018-06-06T12:27:51.766Z,44.15
2018-06-06T12:28:52.364Z,44.05
2018-06-06T12:29:52.349Z,44.15
2018-06-06T12:30:52.798Z,43.85
2018-06-06T12:31:52.314Z,44.64
2018-06-06T12:32:52.264Z,44.56
2018-06-06T12:33:52.749Z,43.39
2018-06-06T12:34:53.920Z,42.69
2018-06-06T12:35:51.778Z,42.69
2018-06-06T12:36:52.311Z,42.49
2018-06-06T12:37:52.879Z,42.88
2018-06-06T12:38:52.615Z,43.93
2018-06-06T12:39:55.043Z,43.76
2018-06-06T12:40:52.018Z,43.27
2018-06-06T12:41:52.054Z,42.90
2018-06-06T12:42:52.018Z,42.12
2018-06-06T12:43:52.077Z,42.90
2018-06-06T12:44:51.885Z,43.00
2018-06-06T12:45:52.737Z,42.54
2018-06-06T12:46:52.075Z,42.14
2018-06-06T12:47:52.314Z,41.77
2018-06-06T12:48:52.363Z,41.48
2018-06-06T12:49:52.266Z,41.48
2018-06-06T12:50:52.889Z,41.11
2018-06-06T12:51:52.820Z,40.50
2018-06-06T12:52:52.327Z,40.31
2018-06-06T12:53:52.051Z,39.78
2018-06-06T12:54:52.663Z,38.81
2018-06-06T12:55:52.619Z,39.57
2018-06-06T12:56:53.230Z,39.96
2018-06-06T12:57:53.137Z,39.70